createdAt,value
2018-02-06T00:02:05.952Z,21.60
2018-02-06T00:04:34.872Z,20.63
2018-02-06T00:07:04.695Z,25.30
2018-02-06T00:09:33.872Z,23.43
2018-02-06T00:12:04.871Z,21.80
2018-02-06T00:14:33.792Z,20.37
2018-02-06T00:17:02.911Z,25.73
2018-02-06T00:19:31.708Z,21.27
2018-02-06T00:22:03.052Z,22.33
2018-02-06T00:24:31.850Z,23.57
2018-02-06T00:27:00.959Z,22.60
2018-02-06T00:29:30.342Z,23.90
2018-02-06T00:31:59.178Z,19.97
2018-02-06T00:34:27.965Z,23.83
2018-02-06T00:36:57.496Z,24.87
2018-02-06T00:39:26.296Z,23.83
2018-02-06T00:41:55.290Z,19.57
2018-02-06T00:44:24.419Z,23.93
2018-02-06T00:46:53.203Z,24.77
2018-02-06T00:49:22.016Z,24.27
2018-02-06T00:51:54.544Z,25.70
2018-02-06T00:54:23.761Z,24.80
2018-02-06T00:56:52.782Z,24.47
2018-02-06T00:59:21.890Z,24.23
2018-02-06T01:01:51.724Z,24.47
2018-02-06T01:04:20.525Z,24.87
2018-02-06T01:06:50.997Z,23.80
2018-02-06T01:09:19.808Z,26.83
2018-02-06T01:11:50.253Z,23.80
2018-02-06T01:14:20.066Z,24.67
2018-02-06T01:16:49.748Z,23.07
2018-02-06T01:19:18.616Z,28.77
2018-02-06T01:21:47.562Z,20.03
2018-02-06T01:24:16.596Z,24.83
2018-02-06T01:26:45.735Z,24.60
2018-02-06T01:29:15.131Z,23.60
2018-02-06T01:31:43.973Z,29.63
2018-02-06T01:34:13.266Z,20.80
2018-02-06T01:36:42.336Z,25.03
2018-02-06T01:39:11.222Z,24.73
2018-02-06T01:41:40.416Z,24.33
2018-02-06T01:44:09.281Z,25.10
2018-02-06T01:46:38.101Z,22.50
2018-02-06T01:49:07.341Z,27.53
2018-02-06T01:51:36.137Z,24.80
2018-02-06T01:54:05.864Z,24.30
2018-02-06T01:56:35.923Z,24.93
2018-02-06T01:59:07.856Z,25.33
2018-02-06T02:01:36.618Z,20.93
2018-02-06T02:04:06.955Z,22.87
2018-02-06T02:06:36.144Z,21.93
2018-02-06T02:09:07.550Z,25.67
2018-02-06T02:11:36.336Z,27.67
2018-02-06T02:14:06.156Z,24.10
2018-02-06T02:16:35.016Z,25.27
2018-02-06T02:19:05.165Z,24.13
2018-02-06T02:21:34.011Z,25.07
2018-02-06T02:24:03.980Z,26.67
2018-02-06T02:26:33.208Z,27.50
2018-02-06T02:29:02.765Z,27.03
2018-02-06T02:31:31.573Z,27.03
2018-02-06T02:34:01.025Z,27.20
2018-02-06T02:36:29.950Z,27.30
2018-02-06T02:38:58.798Z,44.77
2018-02-06T02:41:27.575Z,40.57
2018-02-06T04:41:23.740Z,21.03
2018-02-06T04:43:54.964Z,25.83
2018-02-06T04:46:23.757Z,23.47
2018-02-06T04:48:54.917Z,25.03
2018-02-06T04:51:24.485Z,24.63
2018-02-06T04:53:54.264Z,21.40
2018-02-06T04:56:23.104Z,24.70
2018-02-06T04:58:53.139Z,27.37
2018-02-06T05:01:22.618Z,29.27
2018-02-06T05:03:51.960Z,25.63
2018-02-06T05:06:21.053Z,32.83
2018-02-06T05:08:50.849Z,29.93
2018-02-06T05:11:20.742Z,36.47
2018-02-06T05:13:51.108Z,26.23
2018-02-06T05:16:20.321Z,28.93
2018-02-06T05:18:49.118Z,25.77
2018-02-06T05:21:18.502Z,28.27
2018-02-06T05:23:47.903Z,28.77
2018-02-06T05:26:16.772Z,30.83
2018-02-06T05:28:45.616Z,31.30
2018-02-06T05:31:15.024Z,30.57
2018-02-06T05:33:44.096Z,29.30
2018-02-06T05:36:12.880Z,26.00
2018-02-06T05:38:42.002Z,27.43
2018-02-06T05:41:10.812Z,28.80
2018-02-06T05:43:39.601Z,32.87
2018-02-06T05:46:09.893Z,30.80
2018-02-06T05:48:38.713Z,34.43
2018-02-06T05:51:07.563Z,31.23
2018-02-06T05:53:36.810Z,31.60
2018-02-06T05:56:05.753Z,32.30
2018-02-06T05:58:34.760Z,36.00
2018-02-06T06:01:05.156Z,45.27
2018-02-06T06:03:34.166Z,39.17
2018-02-06T06:06:05.867Z,34.07
2018-02-06T06:08:36.179Z,48.13
2018-02-06T06:11:05.060Z,43.90
2018-02-06T06:13:39.468Z,40.67
2018-02-06T06:16:14.543Z,35.33
2018-02-06T06:18:44.533Z,52.63
2018-02-06T06:21:13.489Z,48.03
2018-02-06T06:23:42.272Z,41.13
2018-02-06T06:26:11.181Z,51.97
2018-02-06T06:28:40.701Z,33.67
2018-02-06T06:31:09.803Z,45.93
2018-02-06T06:33:38.873Z,39.60
2018-02-06T06:36:08.702Z,36.73
2018-02-06T06:38:37.768Z,33.57
2018-02-06T06:41:08.035Z,41.60
2018-02-06T06:43:37.478Z,38.50
2018-02-06T06:46:06.535Z,37.47
2018-02-06T06:48:35.548Z,37.73
2018-02-06T06:51:05.292Z,32.00
2018-02-06T06:53:34.740Z,32.00
2018-02-06T06:56:05.724Z,42.83
2018-02-06T06:58:35.016Z,32.77
2018-02-06T07:01:05.784Z,28.40
2018-02-06T07:03:36.041Z,33.03
2018-02-06T07:06:07.434Z,34.73
2018-02-06T07:08:36.429Z,36.77
2018-02-06T07:11:05.621Z,36.17
2018-02-06T07:13:34.901Z,38.70
2018-02-06T07:16:05.013Z,41.30
2018-02-06T07:18:33.808Z,33.63
2018-02-06T07:21:04.017Z,31.30
2018-02-06T07:23:32.865Z,35.60
2018-02-06T07:26:03.293Z,35.97
2018-02-06T07:28:32.645Z,37.37
2018-02-06T07:31:01.947Z,38.67
2018-02-06T07:33:31.240Z,40.27
2018-02-06T07:36:00.042Z,33.23
2018-02-06T07:38:28.856Z,35.33
2018-02-06T07:40:58.705Z,31.50
2018-02-06T07:43:28.114Z,36.23
2018-02-06T07:49:29.308Z,37.37
2018-02-06T07:51:59.549Z,41.63
2018-02-06T07:54:30.363Z,37.40
2018-02-06T07:56:59.528Z,39.57
2018-02-06T07:59:29.244Z,32.80
2018-02-06T08:01:58.363Z,31.50
2018-02-06T08:04:27.225Z,39.73
2018-02-06T08:06:57.026Z,32.53
2018-02-06T08:09:26.148Z,41.07
2018-02-06T08:11:55.536Z,39.80
2018-02-06T08:14:24.620Z,38.40
2018-02-06T08:16:57.353Z,35.80
2018-02-06T08:19:34.131Z,26.67
2018-02-06T08:22:06.208Z,34.73
2018-02-06T08:24:35.116Z,35.33
2018-02-06T08:27:05.841Z,34.67
2018-02-06T08:29:35.160Z,36.70
2018-02-06T08:32:07.921Z,37.80
2018-02-06T08:34:36.754Z,34.10
2018-02-06T08:37:06.153Z,36.23
2018-02-06T08:39:35.050Z,32.97
2018-02-06T08:42:05.369Z,39.43
2018-02-06T08:44:34.692Z,41.57
2018-02-06T08:47:04.442Z,39.57
2018-02-06T08:49:33.426Z,33.77
2018-02-06T08:52:04.617Z,34.00
2018-02-06T08:54:33.447Z,34.33
2018-02-06T08:57:03.002Z,35.87
2018-02-06T08:59:32.311Z,39.60
2018-02-06T09:02:02.124Z,33.17
2018-02-06T09:04:31.177Z,34.93
2018-02-06T09:07:00.130Z,38.53
2018-02-06T09:09:29.015Z,38.37
2018-02-06T09:11:59.617Z,40.77
2018-02-06T09:14:28.600Z,38.23
2018-02-06T09:16:58.752Z,39.40
2018-02-06T09:19:27.857Z,48.70
2018-02-06T09:21:57.138Z,36.23
2018-02-06T09:24:25.924Z,32.23
2018-02-06T09:26:55.954Z,37.17
2018-02-06T09:29:25.505Z,33.90
2018-02-06T09:31:55.497Z,34.67
2018-02-06T09:34:24.524Z,39.50
2018-02-06T09:36:54.260Z,34.77
2018-02-06T09:39:23.184Z,33.10
2018-02-06T09:41:56.740Z,35.27
2018-02-06T09:44:26.050Z,37.40
2018-02-06T09:46:55.268Z,40.13
2018-02-06T09:49:24.182Z,37.13
2018-02-06T09:51:53.956Z,47.27
2018-02-06T09:54:23.753Z,47.70
2018-02-06T09:56:52.969Z,39.63
2018-02-06T09:59:21.818Z,45.20
2018-02-06T10:01:51.419Z,56.57
2018-02-06T10:04:20.472Z,38.23
2018-02-06T10:06:49.826Z,61.17
2018-02-06T10:09:18.934Z,45.83
2018-02-06T10:11:47.756Z,47.33
2018-02-06T10:14:16.497Z,47.80
2018-02-06T10:16:45.272Z,60.40
2018-02-06T10:19:14.780Z,48.97
2018-02-06T10:21:43.589Z,36.97
2018-02-06T10:24:12.356Z,39.00
2018-02-06T10:26:41.212Z,43.17
2018-02-06T10:29:10.405Z,41.90
2018-02-06T10:31:39.264Z,40.53
2018-02-06T10:34:08.049Z,38.57
2018-02-06T10:36:37.184Z,45.97
2018-02-06T10:39:06.928Z,41.27
2018-02-06T10:41:35.743Z,38.87
2018-02-06T10:44:08.256Z,40.07
2018-02-06T10:46:37.268Z,39.33
2018-02-06T10:49:06.103Z,44.93
2018-02-06T10:51:35.166Z,38.47
2018-02-06T10:54:05.708Z,35.13
2018-02-06T10:56:35.288Z,45.73
2018-02-06T10:59:04.890Z,37.40
2018-02-06T11:04:05.068Z,37.97
2018-02-06T11:06:33.916Z,37.27
2018-02-06T11:09:05.721Z,39.33
2018-02-06T11:11:36.600Z,42.07
2018-02-06T11:14:09.825Z,40.97
2018-02-06T11:16:38.626Z,46.43
2018-02-06T11:19:09.228Z,38.93
2018-02-06T11:21:38.075Z,33.97
2018-02-06T11:24:07.198Z,35.23
2018-02-06T11:26:35.977Z,43.70
2018-02-06T11:29:04.876Z,47.70
2018-02-06T11:31:34.312Z,41.00
2018-02-06T11:34:04.324Z,35.93
2018-02-06T11:36:33.144Z,38.80
2018-02-06T11:39:02.757Z,37.10
2018-02-06T11:41:31.564Z,47.73
2018-02-06T11:44:00.775Z,54.57
2018-02-06T11:46:29.997Z,40.90
2018-02-06T11:48:59.826Z,43.30
2018-02-06T11:51:28.672Z,48.77
2018-02-06T11:53:58.064Z,36.60
2018-02-06T11:56:26.820Z,43.40
2018-02-06T11:58:56.450Z,40.60
2018-02-06T12:01:25.680Z,49.43
2018-02-06T12:03:55.041Z,40.10
2018-02-06T12:06:23.932Z,37.70
2018-02-06T12:08:54.481Z,41.40
2018-02-06T12:11:23.365Z,37.77
2018-02-06T12:13:52.604Z,35.27
2018-02-06T12:16:22.693Z,36.50
2018-02-06T12:18:52.250Z,39.80
2018-02-06T12:21:21.058Z,39.90
2018-02-06T12:23:51.279Z,34.10
2018-02-06T12:26:20.193Z,45.73
2018-02-06T12:28:48.988Z,36.43
2018-02-06T12:31:18.054Z,40.37
2018-02-06T12:33:46.967Z,40.33
2018-02-06T12:36:16.043Z,40.57
2018-02-06T12:38:45.157Z,39.63
2018-02-06T12:41:13.924Z,37.53
2018-02-06T12:43:42.844Z,41.30
2018-02-06T12:46:11.889Z,35.90
2018-02-06T12:48:40.700Z,40.33
2018-02-06T12:51:09.688Z,40.60
2018-02-06T12:53:38.811Z,38.90
2018-02-06T12:56:07.637Z,46.27
2018-02-06T12:58:36.434Z,41.00
2018-02-06T13:01:06.868Z,34.10
2018-02-06T13:03:36.296Z,41.57
2018-02-06T13:06:07.027Z,39.73
2018-02-06T13:08:35.980Z,50.97
2018-02-06T13:11:05.195Z,48.67
2018-02-06T13:13:34.291Z,42.40
2018-02-06T13:16:04.346Z,47.00
2018-02-06T13:18:33.213Z,48.03
2018-02-06T13:21:02.863Z,58.03
2018-02-06T13:23:31.669Z,40.67
2018-02-06T13:26:02.981Z,39.40
2018-02-06T13:28:32.101Z,39.87
2018-02-06T13:31:01.100Z,38.37
2018-02-06T13:33:29.920Z,41.70
2018-02-06T13:35:59.765Z,39.03
2018-02-06T13:38:28.580Z,36.57
2018-02-06T13:40:57.917Z,35.70
2018-02-06T13:43:27.004Z,39.80
2018-02-06T13:45:57.480Z,40.20
2018-02-06T13:48:26.330Z,41.43
2018-02-06T13:50:56.858Z,43.23
2018-02-06T13:53:25.729Z,39.63
2018-02-06T13:55:55.261Z,37.70
2018-02-06T13:58:24.103Z,39.20
2018-02-06T14:00:54.397Z,39.03
2018-02-06T14:03:23.678Z,40.17
2018-02-06T14:05:53.663Z,40.97
2018-02-06T14:08:22.525Z,43.73
2018-02-06T14:10:52.685Z,43.60
2018-02-06T14:13:21.489Z,48.43
2018-02-06T14:15:50.322Z,47.47
2018-02-06T14:18:19.517Z,48.37
2018-02-06T14:20:48.316Z,41.43
2018-02-06T14:23:17.125Z,45.27
2018-02-06T14:25:46.261Z,43.40
2018-02-06T14:28:15.052Z,48.10
2018-02-06T14:30:44.154Z,43.03
2018-02-06T14:33:12.923Z,45.10
2018-02-06T14:35:41.745Z,43.40
2018-02-06T14:38:15.292Z,48.50
2018-02-06T14:40:44.098Z,43.50
2018-02-06T14:43:12.875Z,42.30
2018-02-06T14:45:42.108Z,40.93
2018-02-06T14:48:11.817Z,43.57
2018-02-06T14:50:40.628Z,45.63
2018-02-06T14:53:10.102Z,38.87
2018-02-06T14:55:38.912Z,46.20
2018-02-06T14:58:07.712Z,45.67
2018-02-06T15:00:37.933Z,44.87
2018-02-06T15:03:06.755Z,43.40
2018-02-06T15:05:35.546Z,50.53
2018-02-06T15:08:05.725Z,46.83
2018-02-06T15:10:34.477Z,44.30
2018-02-06T15:13:03.954Z,44.73
2018-02-06T15:15:32.724Z,47.37
2018-02-06T15:18:04.640Z,50.00
2018-02-06T15:20:33.721Z,42.80
2018-02-06T15:23:03.437Z,42.17
2018-02-06T15:25:32.244Z,44.70
2018-02-06T15:28:03.296Z,50.23
2018-02-06T15:30:32.050Z,40.93
2018-02-06T15:33:01.317Z,45.00
2018-02-06T15:35:30.403Z,41.77
2018-02-06T15:37:59.345Z,44.00
2018-02-06T15:40:28.242Z,47.63
2018-02-06T15:42:58.600Z,44.80
2018-02-06T15:45:27.469Z,47.20
2018-02-06T15:47:56.668Z,45.67
2018-02-06T15:50:26.757Z,45.10
2018-02-06T15:52:56.300Z,50.20
2018-02-06T15:55:25.172Z,55.67
2018-02-06T15:57:55.778Z,50.80
2018-02-06T16:00:24.712Z,46.40
2018-02-06T16:02:54.410Z,48.00
2018-02-06T16:05:23.186Z,45.73
2018-02-06T16:07:52.616Z,50.50
2018-02-06T16:10:21.716Z,49.83
2018-02-06T16:12:50.544Z,44.30
2018-02-06T16:15:19.317Z,49.50
2018-02-06T16:17:48.394Z,44.87
2018-02-06T16:20:17.289Z,51.83
2018-02-06T16:22:46.060Z,57.57
2018-02-06T16:25:14.852Z,59.37
2018-02-06T16:27:43.817Z,54.07
2018-02-06T16:30:12.707Z,48.40
2018-02-06T16:32:43.901Z,51.90
2018-02-06T16:35:12.673Z,50.60
2018-02-06T16:37:41.496Z,45.13
2018-02-06T16:40:10.249Z,48.93
2018-02-06T16:42:39.123Z,48.50
2018-02-06T16:45:08.300Z,45.27
2018-02-06T16:47:37.085Z,55.07
2018-02-06T16:50:06.617Z,51.33
2018-02-06T16:52:35.681Z,55.13
2018-02-06T16:55:04.833Z,63.00
2018-02-06T16:57:33.616Z,47.50
2018-02-06T17:00:05.404Z,52.40
2018-02-06T17:02:42.856Z,52.53
2018-02-06T17:05:11.966Z,51.77
2018-02-06T17:07:40.864Z,51.57
2018-02-06T17:10:09.696Z,47.77
2018-02-06T17:12:38.765Z,47.80
2018-02-06T17:15:08.125Z,47.43
2018-02-06T17:17:37.032Z,45.63
2018-02-06T17:20:06.880Z,50.33
2018-02-06T17:22:35.668Z,54.33
2018-02-06T17:25:05.188Z,50.20
2018-02-06T17:27:34.479Z,51.10
2018-02-06T17:30:06.289Z,51.13
2018-02-06T17:32:35.094Z,47.53
2018-02-06T17:35:04.755Z,54.40
2018-02-06T17:37:33.512Z,61.87
2018-02-06T17:40:05.329Z,53.80
2018-02-06T17:42:34.421Z,63.40
2018-02-06T17:45:04.177Z,51.13
2018-02-06T17:47:33.122Z,51.30
2018-02-06T17:50:03.477Z,53.13
2018-02-06T17:52:32.268Z,49.67
2018-02-06T17:55:02.666Z,54.37
2018-02-06T17:57:31.046Z,47.87
2018-02-06T18:00:02.646Z,50.77
2018-02-06T18:02:34.077Z,51.70
2018-02-06T18:05:05.144Z,55.50
2018-02-06T18:07:34.056Z,49.50
2018-02-06T18:10:05.646Z,58.70
2018-02-06T18:12:34.552Z,51.17
2018-02-06T18:15:05.099Z,48.77
2018-02-06T18:17:34.173Z,52.83
2018-02-06T18:20:04.145Z,50.73
2018-02-06T18:22:32.912Z,51.93
2018-02-06T18:25:02.557Z,49.07
2018-02-06T18:27:31.364Z,54.57
2018-02-06T18:30:00.297Z,71.33
2018-02-06T18:32:29.109Z,66.00
2018-02-06T18:34:59.154Z,64.20
2018-02-06T18:37:28.261Z,55.00
2018-02-06T18:39:57.201Z,66.00
2018-02-06T18:42:26.037Z,56.00
2018-02-06T18:44:58.696Z,56.30
2018-02-06T18:47:27.665Z,53.43
2018-02-06T18:49:56.657Z,56.23
2018-02-06T18:52:25.834Z,60.80
2018-02-06T18:54:55.512Z,59.50
2018-02-06T18:57:24.439Z,61.37
2018-02-06T18:59:54.615Z,56.43
2018-02-06T19:02:23.510Z,61.17
2018-02-06T19:04:53.759Z,65.00
2018-02-06T19:07:22.800Z,57.90
2018-02-06T19:09:52.323Z,58.33
2018-02-06T19:12:21.115Z,68.03
2018-02-06T19:14:49.968Z,61.13
2018-02-06T19:17:18.914Z,60.33
2018-02-06T19:19:49.980Z,57.33
2018-02-06T19:22:18.824Z,77.00
2018-02-06T19:24:47.650Z,66.17
2018-02-06T19:27:16.510Z,54.57
2018-02-06T19:29:45.320Z,60.77
2018-02-06T19:32:14.229Z,53.43
2018-02-06T19:34:44.465Z,49.77
2018-02-06T19:37:13.255Z,63.03
2018-02-06T19:39:42.386Z,52.20
2018-02-06T19:42:11.746Z,53.67
2018-02-06T19:44:40.672Z,54.73
2018-02-06T19:47:10.358Z,56.97
2018-02-06T19:49:39.736Z,53.60
2018-02-06T19:52:09.581Z,54.83
2018-02-06T19:54:38.432Z,53.67
2018-02-06T19:57:07.228Z,58.93
2018-02-06T19:59:36.064Z,53.27
2018-02-06T20:02:06.093Z,54.93
2018-02-06T20:04:34.937Z,62.37
2018-02-06T20:07:05.040Z,60.03
2018-02-06T20:09:34.411Z,53.53
2018-02-06T20:12:04.867Z,58.63
2018-02-06T20:14:33.652Z,63.37
2018-02-06T20:17:03.941Z,58.00
2018-02-06T20:19:32.775Z,56.43
2018-02-06T20:22:04.725Z,59.13
2018-02-06T20:24:33.715Z,57.50
2018-02-06T20:27:04.562Z,60.53
2018-02-06T20:29:34.347Z,85.07
2018-02-06T20:32:04.931Z,75.30
2018-02-06T20:34:33.724Z,60.20
2018-02-06T20:37:04.108Z,61.97
2018-02-06T20:39:32.973Z,67.10
2018-02-06T20:42:03.365Z,71.07
2018-02-06T20:44:32.668Z,66.53
2018-02-06T20:47:02.444Z,62.33
2018-02-06T20:49:31.289Z,63.53
2018-02-06T20:52:02.905Z,61.70
2018-02-06T20:54:31.852Z,62.53
2018-02-06T20:57:01.421Z,57.47
2018-02-06T20:59:30.921Z,59.80
2018-02-06T21:02:00.492Z,55.67
2018-02-06T21:04:29.284Z,56.90
2018-02-06T21:06:58.424Z,67.50
2018-02-06T21:09:27.260Z,54.57
2018-02-06T21:11:58.475Z,66.47
2018-02-06T21:14:27.255Z,60.43
2018-02-06T21:16:58.389Z,59.53
2018-02-06T21:19:29.376Z,62.00
2018-02-06T21:22:00.141Z,63.23
2018-02-06T21:24:29.204Z,61.00
2018-02-06T21:26:58.886Z,62.50
2018-02-06T21:29:27.979Z,63.77
2018-02-06T21:31:57.000Z,57.60
2018-02-06T21:34:27.202Z,59.20
2018-02-06T21:36:56.481Z,59.53
2018-02-06T21:39:25.407Z,61.10
2018-02-06T21:41:57.225Z,57.67
2018-02-06T21:44:26.341Z,54.37
2018-02-06T21:46:58.192Z,59.93
2018-02-06T21:49:27.140Z,58.13
2018-02-06T21:51:58.608Z,56.83
2018-02-06T21:54:27.948Z,58.17
2018-02-06T21:56:57.004Z,63.47
2018-02-06T21:59:25.896Z,58.10
2018-02-06T22:01:56.829Z,55.90
2018-02-06T22:04:25.728Z,50.53
2018-02-06T22:06:55.193Z,61.47
2018-02-06T22:09:24.292Z,52.20
2018-02-06T22:11:53.653Z,58.40
2018-02-06T22:14:22.461Z,55.97
2018-02-06T22:16:51.680Z,62.77
2018-02-06T22:19:20.496Z,57.23
2018-02-06T22:21:49.344Z,59.07
2018-02-06T22:24:18.161Z,59.83
2018-02-06T22:26:46.989Z,57.37
2018-02-06T22:29:15.992Z,66.90
2018-02-06T22:31:45.085Z,64.13
2018-02-06T22:34:14.204Z,62.70
2018-02-06T22:36:43.893Z,66.60
2018-02-06T22:39:12.968Z,65.77
2018-02-06T22:41:42.079Z,60.07
2018-02-06T22:44:11.407Z,69.70
2018-02-06T22:46:40.259Z,73.27
2018-02-06T22:49:09.858Z,71.60
2018-02-06T22:51:38.782Z,68.53
2018-02-06T22:54:07.671Z,69.13
2018-02-06T22:56:36.487Z,75.67
2018-02-06T22:59:07.253Z,64.50
2018-02-06T23:01:36.085Z,69.93
2018-02-06T23:04:06.095Z,67.00
2018-02-06T23:06:35.144Z,73.90
2018-02-06T23:09:05.318Z,72.20
2018-02-06T23:11:34.475Z,64.53
2018-02-06T23:14:04.595Z,70.60
2018-02-06T23:16:33.531Z,65.90
2018-02-06T23:19:05.610Z,64.70
2018-02-06T23:21:34.934Z,62.77
2018-02-06T23:24:05.546Z,60.30
2018-02-06T23:26:34.690Z,51.97
2018-02-06T23:29:05.216Z,62.43
2018-02-06T23:31:33.963Z,61.67
2018-02-06T23:34:04.060Z,61.57
2018-02-06T23:36:32.841Z,62.30
2018-02-06T23:39:02.399Z,57.27
2018-02-06T23:41:32.017Z,57.23
2018-02-06T23:44:04.189Z,59.63
2018-02-06T23:46:34.198Z,57.93
2018-02-06T23:49:03.610Z,60.70
2018-02-06T23:51:32.497Z,59.70
2018-02-06T23:54:04.897Z,63.90
2018-02-06T23:56:33.912Z,69.63
2018-02-06T23:59:03.418Z,57.70
